• Join FlightAware (Why Join?)
  • Login
  • US Flag 
11:54PM EDT


 

Airport Tracker/Info


-or-


 

Live Flight TrackerFlight Track Log ✈ TRP11 ✈ 24-Sep-2013 ✈ KELM - KMTN

Flight Track Log - Related Links

Times and Time Zones

All times are in EDT time to prevent confusion due to time zone crossing. See the TRP11 flight status page for this flight to view local times or setup timezone preferences in your user account.

Time Position Orientation Groundspeed Altitude Reporting Facility
EDT Latitude Longitude Course Direction KTS MPH feet Rate Location/Type
11:02AM 42.1208 -76.9497 176° South 177 204 3,300  Level New York Center
11:03AM 42.0650 -76.9444 176° South 177 204 5,000 1,680 Climbing New York Center
11:04AM 42.0117 -76.9283 167° South 182 209 6,800 1,500 Climbing New York Center
11:05AM 41.9600 -76.9208 174° South 199 229 8,100 1,440 Climbing New York Center
11:06AM 41.8997 -76.9153 176° South 212 244 9,800 1,560 Climbing New York Center
11:07AM 41.8397 -76.9097 176° South 217 250 11,200 1,620 Climbing New York Center
11:08AM 41.7775 -76.9039 176° South 217 250 13,000 1,680 Climbing New York Center
11:09AM 41.7175 -76.8983 176° South 217 250 14,700 1,440 Climbing New York Center
11:10AM 41.6567 -76.9039 184° South 217 250 16,000 600 Climbing New York Center
11:11AM 41.5833 -76.9139 186° South 236 272 16,000  Level New York Center
11:12AM 41.5036 -76.9233 185° South 271 312 16,000  Level New York Center
11:13AM 41.4217 -76.9350 186° South 292 336 16,000  Level New York Center
11:14AM 41.3358 -76.9439 184° South 305 351 16,100  Climbing New York Center
11:15AM 41.2519 -76.9556 186° South 305 351 16,100  Level New York Center
11:16AM 41.1681 -76.9644 185° South 305 351 16,100  Level New York Center
11:17AM 41.0822 -76.9758 186° South 310 357 16,100  Level New York Center
11:18AM 40.9981 -76.9875 186° South 315 362 16,100  Level New York Center
11:19AM 40.9228 -76.9969 185° South 315 362 16,100  Level New York Center
11:20AM 40.8283 -77.0075 185° South 315 362 16,100 -60 Level New York Center
11:21AM 40.7444 -77.0192 186° South 315 362 16,000  Descending New York Center
11:22AM 40.6522 -77.0272 184° South 315 362 16,100  Climbing New York Center
11:23AM 40.5747 -77.0364 185° South 316 364 16,000  Descending New York Center
11:24AM 40.4844 -77.0475 185° South 310 357 16,100  Climbing New York Center
11:25AM 40.4067 -77.0567 185° South 310 357 16,100 -360 Level New York Center
11:26AM 40.3144 -77.0675 185° South 310 357 15,400 -1,020 Descending New York Center
11:27AM 40.2383 -77.0469 168° South 315 362 14,100 -1,440 Descending New York Center
11:28AM 40.1444 -77.0111 164° South 315 362 12,600 -1,500 Descending New York Center
11:29AM 40.0606 -76.9819 165° South 315 362 11,100 -1,020 Descending New York Center
11:32AM 39.8667 -76.9000 162° South 282 325 9,100 -600 Descending Potomac TRACON
11:32AM 39.8000 -76.8833 169° South 279 321 9,100 -360 Level Potomac TRACON
11:33AM 39.7167 -76.8667 171° South 275 316 8,500 -1,140 Descending Potomac TRACON
11:34AM 39.6667 -76.8167 142° Southeast 268 308 6,900 -1,680 Descending Potomac TRACON
11:35AM 39.6000 -76.7500 142° Southeast 266 306 5,200 -1,440 Descending Potomac TRACON
11:36AM 39.5500 -76.6833 134° Southeast 262 302 4,000 -660 Descending Potomac TRACON
11:37AM 39.5000 -76.6167 134° Southeast 264 304 3,900 -60 Descending Potomac TRACON
11:39AM 39.4333 -76.5500 142° Southeast 258 297 3,900 -600 Level Potomac TRACON
11:40AM 39.3833 -76.5000 142° Southeast 243 280 2,700 -1,260 Descending Potomac TRACON
11:41AM 39.3333 -76.4833 166° South 218 251 1,600 -660 Descending Potomac TRACON
11:42AM 39.2833 -76.4333 142° Southeast 178 205 1,400 -300 Descending Potomac TRACON
11:43AM 39.2833 -76.4000 90° East 151 174 1,000 -600 Descending Potomac TRACON
11:44AM 39.3167 -76.4000 360° North 122 140 300 -720 Descending Potomac TRACON